Time;durP1;ratioP1;P1;durP2;ratioP2;P2;SDS_P1;SDS_P2;PMS_P1;PMS_P2;Temp;Humidity;BMP_temperature;BMP_pressure;BME280_temperature;BME280_humidity;BME280_pressure;Samples;Min_cycle;Max_cycle;Signal;HPM_P1;HPM_P2
2021/05/09 00:01:22;;;;;;;0.52;0.52;;;;;;;;;;5005141;28;20121;-62
2021/05/09 00:03:48;;;;;;;0.43;0.43;;;;;;;;;;5015491;28;20108;-63
2021/05/09 00:06:14;;;;;;;0.50;0.50;;;;;;;;;;5000476;28;20459;-62
2021/05/09 00:08:40;;;;;;;0.40;0.40;;;;;;;;;;4988918;28;20133;-63
2021/05/09 00:11:06;;;;;;;1.08;0.40;;;;;;;;;;5003068;28;20064;-63
2021/05/09 00:13:32;;;;;;;0.38;0.38;;;;;;;;;;4996756;28;20037;-61
2021/05/09 00:15:58;;;;;;;0.50;0.50;;;;;;;;;;5002699;28;20129;-62
2021/05/09 00:18:25;;;;;;;0.50;0.50;;;;;;;;;;4998688;28;20063;-62
2021/05/09 00:20:51;;;;;;;0.40;0.40;;;;;;;;;;4999043;28;20030;-63
2021/05/09 00:23:17;;;;;;;0.40;0.40;;;;;;;;;;5006511;28;20149;-62
2021/05/09 00:25:43;;;;;;;0.38;0.38;;;;;;;;;;5000607;28;20026;-61
2021/05/09 00:28:08;;;;;;;0.25;0.25;;;;;;;;;;5000766;28;20716;-62
2021/05/09 00:30:34;;;;;;;0.40;0.40;;;;;;;;;;5005336;28;20115;-62
2021/05/09 00:33:00;;;;;;;0.40;0.40;;;;;;;;;;4999636;28;20477;-62
2021/05/09 00:35:26;;;;;;;1.17;0.50;;;;;;;;;;5008165;28;20194;-62
2021/05/09 00:37:52;;;;;;;0.40;0.40;;;;;;;;;;5000128;28;20042;-63
2021/05/09 00:40:18;;;;;;;0.38;0.30;;;;;;;;;;4998170;28;20034;-62
2021/05/09 00:42:44;;;;;;;0.40;0.40;;;;;;;;;;4994874;28;20113;-63
2021/05/09 00:45:10;;;;;;;0.30;0.30;;;;;;;;;;5004594;28;20140;-62
2021/05/09 00:47:36;;;;;;;0.40;0.40;;;;;;;;;;4999724;28;20649;-62
2021/05/09 00:50:02;;;;;;;1.13;0.50;;;;;;;;;;4999278;28;20077;-62
2021/05/09 00:52:28;;;;;;;2.20;0.40;;;;;;;;;;4998193;28;20037;-63
2021/05/09 00:55:04;;;;;;;1.13;0.50;;;;;;;;;;5003378;28;20038;-62
2021/05/09 00:57:32;;;;;;;0.40;0.40;;;;;;;;;;4994037;28;20042;-62
2021/05/09 00:59:57;;;;;;;0.40;0.40;;;;;;;;;;5007348;28;20076;-62
2021/05/09 01:02:23;;;;;;;0.60;0.60;;;;;;;;;;5023104;28;20026;-62
2021/05/09 01:04:49;;;;;;;1.38;0.63;;;;;;;;;;5007532;28;20454;-62
2021/05/09 01:07:15;;;;;;;0.40;0.40;;;;;;;;;;5006454;28;20026;-62
2021/05/09 01:09:42;;;;;;;1.80;0.60;;;;;;;;;;5005374;28;20086;-61
2021/05/09 01:12:11;;;;;;;0.45;0.45;;;;;;;;;;5002172;28;20635;-62
2021/05/09 01:14:37;;;;;;;0.47;0.43;;;;;;;;;;4999411;28;20048;-62
2021/05/09 01:17:03;;;;;;;0.40;0.40;;;;;;;;;;5003936;28;20033;-63
2021/05/09 01:19:29;;;;;;;0.40;0.40;;;;;;;;;;4997408;28;20045;-62
2021/05/09 01:21:55;;;;;;;0.70;0.68;;;;;;;;;;5003103;28;20375;-62
2021/05/09 01:24:21;;;;;;;3.15;0.60;;;;;;;;;;5001191;28;20022;-62
2021/05/09 01:26:47;;;;;;;0.40;0.40;;;;;;;;;;4995146;28;20029;-62
2021/05/09 01:29:13;;;;;;;0.50;0.50;;;;;;;;;;4999750;28;20029;-62
2021/05/09 01:31:39;;;;;;;0.40;0.40;;;;;;;;;;5004175;28;20022;-63
2021/05/09 01:34:05;;;;;;;0.82;0.50;;;;;;;;;;4998940;28;20161;-61
2021/05/09 01:36:31;;;;;;;0.30;0.30;;;;;;;;;;4999332;28;20695;-62
2021/05/09 01:38:57;;;;;;;0.55;0.50;;;;;;;;;;4997198;28;20104;-62
2021/05/09 01:41:23;;;;;;;3.22;0.40;;;;;;;;;;5009095;28;20152;-62
2021/05/09 01:43:49;;;;;;;0.55;0.40;;;;;;;;;;5005655;28;20025;-62
2021/05/09 01:46:15;;;;;;;0.50;0.50;;;;;;;;;;5004288;28;20026;-61
2021/05/09 01:48:41;;;;;;;2.10;0.60;;;;;;;;;;5003484;28;20112;-62
2021/05/09 01:51:07;;;;;;;0.40;0.38;;;;;;;;;;5006804;28;20049;-62
2021/05/09 01:53:33;;;;;;;1.30;0.50;;;;;;;;;;5006708;28;20110;-62
2021/05/09 01:55:59;;;;;;;0.75;0.50;;;;;;;;;;5000897;28;20045;-63
2021/05/09 01:58:25;;;;;;;1.13;0.40;;;;;;;;;;4998470;28;20082;-62
2021/05/09 02:00:50;;;;;;;0.50;0.50;;;;;;;;;;5005122;28;20036;-61
2021/05/09 02:03:16;;;;;;;1.63;0.50;;;;;;;;;;5003257;28;20298;-63
2021/05/09 02:05:42;;;;;;;0.60;0.60;;;;;;;;;;5009282;28;20295;-62
2021/05/09 02:08:08;;;;;;;0.63;0.63;;;;;;;;;;5004321;28;20542;-62
2021/05/09 02:10:34;;;;;;;1.00;0.50;;;;;;;;;;5002582;28;20446;-62
2021/05/09 02:13:00;;;;;;;0.82;0.30;;;;;;;;;;5003572;28;20339;-63
2021/05/09 02:15:26;;;;;;;0.47;0.47;;;;;;;;;;5005747;28;20071;-63
2021/05/09 02:17:52;;;;;;;0.50;0.50;;;;;;;;;;5005771;28;20215;-63
2021/05/09 02:20:18;;;;;;;0.90;0.50;;;;;;;;;;5001257;28;20414;-62
2021/05/09 02:22:44;;;;;;;0.30;0.30;;;;;;;;;;4999318;28;20347;-63
2021/05/09 02:25:10;;;;;;;0.50;0.50;;;;;;;;;;4995894;28;20577;-62
2021/05/09 02:27:36;;;;;;;0.35;0.32;;;;;;;;;;4989657;28;20040;-63
2021/05/09 02:30:02;;;;;;;0.57;0.40;;;;;;;;;;4992681;28;20026;-62
2021/05/09 02:32:28;;;;;;;0.80;0.80;;;;;;;;;;4995339;28;20457;-62
2021/05/09 02:34:54;;;;;;;0.98;0.50;;;;;;;;;;5003220;28;20449;-63
2021/05/09 02:37:20;;;;;;;1.23;0.45;;;;;;;;;;5006035;28;20359;-61
2021/05/09 02:39:46;;;;;;;0.95;0.40;;;;;;;;;;5002949;28;20088;-63
2021/05/09 02:42:12;;;;;;;0.47;0.47;;;;;;;;;;5001152;28;20093;-63
2021/05/09 02:44:38;;;;;;;0.52;0.40;;;;;;;;;;5007824;28;20152;-63
2021/05/09 02:47:04;;;;;;;0.65;0.40;;;;;;;;;;5001906;28;20129;-62
2021/05/09 02:49:30;;;;;;;2.50;0.40;;;;;;;;;;5000673;28;20017;-63
2021/05/09 02:51:56;;;;;;;11.90;0.50;;;;;;;;;;5003150;28;20073;-62
2021/05/09 02:54:22;;;;;;;0.63;0.50;;;;;;;;;;4999264;28;20022;-62
2021/05/09 02:56:48;;;;;;;0.52;0.52;;;;;;;;;;5006584;28;20244;-62
2021/05/09 02:59:14;;;;;;;0.65;0.40;;;;;;;;;;5013239;28;20084;-62
2021/05/09 03:01:40;;;;;;;0.47;0.47;;;;;;;;;;5005892;28;20110;-62
2021/05/09 03:04:06;;;;;;;0.40;0.40;;;;;;;;;;5008504;28;20137;-62
2021/05/09 03:06:32;;;;;;;0.40;0.40;;;;;;;;;;5000166;28;20097;-62
2021/05/09 03:08:58;;;;;;;0.20;0.20;;;;;;;;;;4999165;28;20025;-62
2021/05/09 03:11:28;;;;;;;0.38;0.30;;;;;;;;;;4997275;28;20052;-62
2021/05/09 03:13:54;;;;;;;0.30;0.30;;;;;;;;;;5016493;28;20021;-62
2021/05/09 03:16:19;;;;;;;0.50;0.50;;;;;;;;;;5008291;28;20049;-63
2021/05/09 03:18:45;;;;;;;0.40;0.40;;;;;;;;;;5003323;28;20209;-63
2021/05/09 03:21:11;;;;;;;0.40;0.40;;;;;;;;;;5007140;28;20425;-62
2021/05/09 03:23:37;;;;;;;0.30;0.30;;;;;;;;;;5007921;28;20132;-62
2021/05/09 03:26:03;;;;;;;0.30;0.30;;;;;;;;;;4998102;28;20069;-62
2021/05/09 03:28:29;;;;;;;0.50;0.50;;;;;;;;;;5001410;28;20037;-62
2021/05/09 03:30:55;;;;;;;0.30;0.30;;;;;;;;;;5011144;28;20038;-62
2021/05/09 03:33:21;;;;;;;0.40;0.40;;;;;;;;;;5010753;28;20346;-62
2021/05/09 03:35:47;;;;;;;0.40;0.40;;;;;;;;;;5011979;28;20038;-63
2021/05/09 03:38:13;;;;;;;0.30;0.30;;;;;;;;;;5007312;28;20117;-62
2021/05/09 03:40:40;;;;;;;0.55;0.50;;;;;;;;;;5000053;28;20034;-62
2021/05/09 03:43:06;;;;;;;3.83;0.60;;;;;;;;;;5011237;28;20033;-63
2021/05/09 03:45:32;;;;;;;0.40;0.40;;;;;;;;;;5002954;28;20025;-62
2021/05/09 03:47:58;;;;;;;0.40;0.40;;;;;;;;;;5002208;28;20153;-63
2021/05/09 03:50:24;;;;;;;0.47;0.35;;;;;;;;;;5025112;28;20041;-63
2021/05/09 03:52:50;;;;;;;0.20;0.20;;;;;;;;;;5009764;28;20279;-63
2021/05/09 03:55:16;;;;;;;0.20;0.20;;;;;;;;;;5001478;28;20084;-62
2021/05/09 03:57:42;;;;;;;0.52;0.30;;;;;;;;;;5008630;28;20564;-62
2021/05/09 04:00:08;;;;;;;1.85;0.30;;;;;;;;;;4999477;28;20030;-63
2021/05/09 04:02:34;;;;;;;0.30;0.30;;;;;;;;;;4993905;28;20133;-62
2021/05/09 04:05:00;;;;;;;1.52;0.50;;;;;;;;;;5000298;28;20109;-62
2021/05/09 04:07:26;;;;;;;0.20;0.20;;;;;;;;;;5000695;28;20407;-62
2021/05/09 04:09:52;;;;;;;2.50;0.50;;;;;;;;;;5001245;28;20038;-62
2021/05/09 04:12:18;;;;;;;0.30;0.30;;;;;;;;;;5002805;28;20030;-62
2021/05/09 04:14:43;;;;;;;1.17;0.30;;;;;;;;;;4995707;28;20027;-61
2021/05/09 04:17:09;;;;;;;0.20;0.20;;;;;;;;;;5002086;28;20034;-62
2021/05/09 04:19:35;;;;;;;0.30;0.30;;;;;;;;;;4999517;28;20026;-62
2021/05/09 04:22:01;;;;;;;0.30;0.30;;;;;;;;;;5000010;28;20038;-62
2021/05/09 04:24:27;;;;;;;0.30;0.30;;;;;;;;;;4990825;28;20030;-62
2021/05/09 04:26:53;;;;;;;0.30;0.30;;;;;;;;;;5001297;28;20473;-63
2021/05/09 04:29:19;;;;;;;0.30;0.30;;;;;;;;;;5000526;28;20526;-63
2021/05/09 04:31:45;;;;;;;0.98;0.32;;;;;;;;;;4996624;28;20025;-62
2021/05/09 04:34:11;;;;;;;0.40;0.40;;;;;;;;;;4998116;28;20026;-62
2021/05/09 04:36:37;;;;;;;0.20;0.20;;;;;;;;;;4997671;28;20037;-62
2021/05/09 04:39:04;;;;;;;0.30;0.30;;;;;;;;;;5005649;28;20034;-62
2021/05/09 04:41:30;;;;;;;0.20;0.20;;;;;;;;;;4993431;28;20493;-61
2021/05/09 04:43:57;;;;;;;0.32;0.32;;;;;;;;;;4996406;28;20101;-61
2021/05/09 04:46:23;;;;;;;0.70;0.25;;;;;;;;;;5006689;28;20026;-62
2021/05/09 04:48:49;;;;;;;0.20;0.20;;;;;;;;;;4989837;28;20465;-62
2021/05/09 04:51:15;;;;;;;0.20;0.20;;;;;;;;;;5003143;28;20030;-62
2021/05/09 04:53:41;;;;;;;0.30;0.30;;;;;;;;;;4998117;28;20095;-62
2021/05/09 04:56:07;;;;;;;0.30;0.30;;;;;;;;;;5001935;28;20034;-62
2021/05/09 04:58:35;;;;;;;1.95;0.30;;;;;;;;;;4999854;28;20107;-61
2021/05/09 05:01:02;;;;;;;0.55;0.30;;;;;;;;;;4998646;28;20215;-62
2021/05/09 05:03:28;;;;;;;0.75;0.70;;;;;;;;;;4996902;28;20030;-62
2021/05/09 05:05:54;;;;;;;0.45;0.30;;;;;;;;;;4996653;28;20061;-61
2021/05/09 05:08:20;;;;;;;0.30;0.30;;;;;;;;;;4997447;28;20321;-62
2021/05/09 05:10:46;;;;;;;0.30;0.30;;;;;;;;;;5000530;28;20091;-61
2021/05/09 05:13:19;;;;;;;0.43;0.43;;;;;;;;;;4990415;28;20038;-61
2021/05/09 05:15:48;;;;;;;0.30;0.30;;;;;;;;;;5003357;28;20026;-62
2021/05/09 05:18:14;;;;;;;2.78;0.20;;;;;;;;;;5021297;28;20018;-62
2021/05/09 05:20:40;;;;;;;0.90;0.30;;;;;;;;;;5003850;28;20030;-62
2021/05/09 05:23:06;;;;;;;0.40;0.30;;;;;;;;;;5018453;28;20017;-62
2021/05/09 05:25:32;;;;;;;0.28;0.28;;;;;;;;;;5002843;28;20524;-63
2021/05/09 05:27:58;;;;;;;0.20;0.20;;;;;;;;;;5007509;28;20494;-62
2021/05/09 05:30:24;;;;;;;0.43;0.30;;;;;;;;;;5012118;28;20038;-62
2021/05/09 05:32:50;;;;;;;0.80;0.25;;;;;;;;;;5015202;28;20026;-62
2021/05/09 05:35:16;;;;;;;0.40;0.40;;;;;;;;;;5008999;28;20479;-63
2021/05/09 05:37:42;;;;;;;0.40;0.40;;;;;;;;;;5006786;28;20121;-61
2021/05/09 05:40:08;;;;;;;0.20;0.20;;;;;;;;;;5011164;28;20470;-61
2021/05/09 05:42:34;;;;;;;1.85;0.28;;;;;;;;;;5015538;28;20033;-61
2021/05/09 05:45:00;;;;;;;1.98;0.32;;;;;;;;;;5015195;28;20454;-62
2021/05/09 05:47:26;;;;;;;1.67;0.30;;;;;;;;;;5004303;28;20140;-62
2021/05/09 05:49:55;;;;;;;0.25;0.25;;;;;;;;;;5002593;28;20152;-63
2021/05/09 05:52:21;;;;;;;0.20;0.20;;;;;;;;;;4997687;28;20514;-63
2021/05/09 05:54:47;;;;;;;2.97;0.57;;;;;;;;;;5000861;28;20184;-65
2021/05/09 05:57:13;;;;;;;16.20;0.98;;;;;;;;;;5000617;28;20058;-66
2021/05/09 05:59:39;;;;;;;1.75;0.50;;;;;;;;;;5000503;28;20052;-65
2021/05/09 06:02:05;;;;;;;8.55;1.27;;;;;;;;;;5011323;28;20112;-65
2021/05/09 06:04:31;;;;;;;1.65;0.65;;;;;;;;;;4990980;28;20054;-66
2021/05/09 06:06:57;;;;;;;5.30;0.80;;;;;;;;;;5002296;28;20085;-62
2021/05/09 06:09:23;;;;;;;6.70;0.80;;;;;;;;;;4999381;28;20033;-61
2021/05/09 06:11:49;;;;;;;9.10;1.10;;;;;;;;;;5010878;28;20034;-62
2021/05/09 06:14:15;;;;;;;5.35;1.17;;;;;;;;;;5004633;28;20125;-63
2021/05/09 06:16:41;;;;;;;10.15;1.13;;;;;;;;;;4998686;28;20026;-63
2021/05/09 06:19:06;;;;;;;8.98;1.35;;;;;;;;;;5009129;28;20033;-62
2021/05/09 06:21:32;;;;;;;6.30;1.20;;;;;;;;;;4997267;28;20042;-64
2021/05/09 06:23:59;;;;;;;7.93;1.27;;;;;;;;;;5006330;28;20045;-63
2021/05/09 06:26:25;;;;;;;8.95;1.00;;;;;;;;;;5013263;28;20065;-63
2021/05/09 06:28:53;;;;;;;8.60;1.70;;;;;;;;;;5007830;28;20095;-64
2021/05/09 06:31:19;;;;;;;11.45;1.55;;;;;;;;;;5016256;28;20149;-62
2021/05/09 06:33:44;;;;;;;14.50;1.77;;;;;;;;;;5006929;28;20075;-63
2021/05/09 06:36:10;;;;;;;8.98;2.00;;;;;;;;;;5015086;28;20115;-61
2021/05/09 06:38:38;;;;;;;11.65;1.70;;;;;;;;;;5005819;28;20045;-62
2021/05/09 06:41:04;;;;;;;10.45;1.85;;;;;;;;;;5016674;28;20196;-63
2021/05/09 06:43:31;;;;;;;4.53;1.55;;;;;;;;;;5025053;28;20194;-61
2021/05/09 06:45:57;;;;;;;8.25;1.77;;;;;;;;;;5029949;28;20030;-61
2021/05/09 06:48:24;;;;;;;4.15;1.48;;;;;;;;;;5019111;28;20028;-62
2021/05/09 06:50:50;;;;;;;6.80;1.33;;;;;;;;;;5015719;28;20030;-61
2021/05/09 06:53:15;;;;;;;11.77;2.38;;;;;;;;;;5009846;28;20033;-63
2021/05/09 06:55:44;;;;;;;32.83;3.33;;;;;;;;;;5004592;28;20037;-63
2021/05/09 06:58:11;;;;;;;22.80;3.40;;;;;;;;;;5006367;28;20025;-63
2021/05/09 07:00:37;;;;;;;26.38;3.70;;;;;;;;;;5008188;28;20385;-63
2021/05/09 07:03:03;;;;;;;30.92;4.85;;;;;;;;;;4998974;28;20022;-61
2021/05/09 07:05:29;;;;;;;28.33;4.60;;;;;;;;;;5003099;28;20349;-60
2021/05/09 07:07:56;;;;;;;31.50;4.72;;;;;;;;;;5016173;28;20116;-61
2021/05/09 07:10:22;;;;;;;58.20;5.65;;;;;;;;;;5011350;28;20556;-61
2021/05/09 07:12:48;;;;;;;20.55;4.45;;;;;;;;;;5007838;28;20116;-60
2021/05/09 07:15:19;;;;;;;29.95;3.83;;;;;;;;;;5003771;28;20022;-61
2021/05/09 07:17:57;;;;;;;19.40;3.00;;;;;;;;;;4996473;28;20553;-61
2021/05/09 07:20:23;;;;;;;13.32;3.45;;;;;;;;;;4999334;28;20024;-61
2021/05/09 07:22:53;;;;;;;16.52;2.63;;;;;;;;;;5010258;28;20541;-61
2021/05/09 07:25:20;;;;;;;15.10;3.45;;;;;;;;;;5009795;28;20017;-62
2021/05/09 07:27:46;;;;;;;20.30;3.95;;;;;;;;;;5010030;28;20044;-62
2021/05/09 07:30:12;;;;;;;15.35;3.35;;;;;;;;;;5015921;28;20034;-62
2021/05/09 07:32:38;;;;;;;16.52;3.53;;;;;;;;;;5005656;28;20065;-61
2021/05/09 07:35:04;;;;;;;46.03;4.18;;;;;;;;;;5002908;28;20139;-62
2021/05/09 07:37:30;;;;;;;26.45;3.58;;;;;;;;;;5011409;28;20536;-62
2021/05/09 07:39:55;;;;;;;25.60;2.85;;;;;;;;;;5004739;28;20068;-62
2021/05/09 07:42:21;;;;;;;19.05;3.25;;;;;;;;;;5008790;28;20026;-63
2021/05/09 07:44:47;;;;;;;22.77;3.13;;;;;;;;;;5017277;28;20033;-63
2021/05/09 07:47:13;;;;;;;14.63;3.30;;;;;;;;;;5002748;28;20088;-62
2021/05/09 07:49:39;;;;;;;23.33;3.03;;;;;;;;;;5009902;28;20030;-61
2021/05/09 07:52:05;;;;;;;19.33;2.95;;;;;;;;;;5015733;28;20035;-62
2021/05/09 07:54:31;;;;;;;16.10;2.95;;;;;;;;;;5015484;28;20105;-61
2021/05/09 07:56:57;;;;;;;13.68;3.28;;;;;;;;;;5013791;28;20033;-61
2021/05/09 07:59:23;;;;;;;23.63;3.30;;;;;;;;;;5012653;28;20021;-62
2021/05/09 08:01:49;;;;;;;35.55;4.05;;;;;;;;;;5005733;28;20061;-64
2021/05/09 08:04:15;;;;;;;36.95;4.18;;;;;;;;;;5013610;28;20478;-63
2021/05/09 08:06:43;;;;;;;32.47;3.50;;;;;;;;;;5016139;28;20577;-61
2021/05/09 08:09:09;;;;;;;19.50;3.08;;;;;;;;;;5010517;28;20377;-62
2021/05/09 08:11:35;;;;;;;18.58;2.03;;;;;;;;;;5006742;28;20045;-62
2021/05/09 08:14:01;;;;;;;7.88;1.70;;;;;;;;;;5001770;28;20044;-62
2021/05/09 08:16:27;;;;;;;3.90;1.40;;;;;;;;;;5005813;28;20068;-62
2021/05/09 08:18:52;;;;;;;2.58;1.10;;;;;;;;;;4999916;28;20103;-61
2021/05/09 08:21:18;;;;;;;2.08;1.30;;;;;;;;;;5005196;28;20480;-62
2021/05/09 08:23:45;;;;;;;2.65;1.00;;;;;;;;;;4988535;28;20053;-63
2021/05/09 08:26:11;;;;;;;2.47;0.98;;;;;;;;;;5013318;28;20038;-63
2021/05/09 08:28:37;;;;;;;1.23;0.93;;;;;;;;;;5014669;28;20037;-62
2021/05/09 08:31:03;;;;;;;1.20;0.80;;;;;;;;;;5016773;28;20022;-62
2021/05/09 08:33:32;;;;;;;1.20;1.10;;;;;;;;;;5014018;28;20049;-63
2021/05/09 08:35:58;;;;;;;3.40;0.98;;;;;;;;;;5014843;28;20234;-65
2021/05/09 08:38:24;;;;;;;0.88;0.88;;;;;;;;;;5018374;28;20025;-66
2021/05/09 08:40:50;;;;;;;0.90;0.90;;;;;;;;;;5016345;28;20085;-65
2021/05/09 08:43:16;;;;;;;1.95;1.23;;;;;;;;;;5021044;28;20025;-65
2021/05/09 08:45:42;;;;;;;0.93;0.90;;;;;;;;;;5005513;28;20047;-65
2021/05/09 08:48:13;;;;;;;1.35;0.90;;;;;;;;;;5015221;28;20055;-65
2021/05/09 08:50:39;;;;;;;0.90;0.90;;;;;;;;;;4998156;28;20033;-65
2021/05/09 08:53:05;;;;;;;5.38;0.95;;;;;;;;;;5015218;28;20026;-64
2021/05/09 08:55:31;;;;;;;1.05;0.93;;;;;;;;;;5012770;28;20116;-63
2021/05/09 08:57:57;;;;;;;2.58;0.80;;;;;;;;;;5011613;28;20041;-64
2021/05/09 09:00:24;;;;;;;1.65;0.82;;;;;;;;;;5008936;28;20025;-63
2021/05/09 09:02:50;;;;;;;9.82;1.08;;;;;;;;;;5014935;28;20678;-63
2021/05/09 09:05:16;;;;;;;3.30;1.88;;;;;;;;;;5017286;28;20041;-62
2021/05/09 09:07:43;;;;;;;4.00;1.75;;;;;;;;;;5010959;28;20377;-63
2021/05/09 09:10:09;;;;;;;10.27;2.42;;;;;;;;;;5018178;28;20029;-63
2021/05/09 09:12:38;;;;;;;17.05;2.03;;;;;;;;;;5016335;28;20022;-63
2021/05/09 09:15:05;;;;;;;6.93;1.50;;;;;;;;;;5011677;28;20101;-63
2021/05/09 09:17:31;;;;;;;7.45;1.67;;;;;;;;;;5008873;28;20042;-63
2021/05/09 09:20:17;;;;;;;7.15;1.42;;;;;;;;;;5021535;28;20056;-62
2021/05/09 09:23:04;;;;;;;27.00;1.73;;;;;;;;;;5013255;28;20061;-62
2021/05/09 09:25:33;;;;;;;4.85;1.45;;;;;;;;;;5006879;28;20018;-65
2021/05/09 09:27:59;;;;;;;10.50;1.65;;;;;;;;;;5013108;28;20133;-63
2021/05/09 09:30:25;;;;;;;8.88;1.63;;;;;;;;;;4996949;28;20687;-63
2021/05/09 09:33:08;;;;;;;8.40;1.75;;;;;;;;;;5009638;28;20128;-62
2021/05/09 09:35:34;;;;;;;7.20;1.92;;;;;;;;;;5013275;28;20076;-63
2021/05/09 09:38:01;;;;;;;8.93;1.33;;;;;;;;;;5008764;28;20347;-64
2021/05/09 09:40:27;;;;;;;23.95;2.35;;;;;;;;;;5008350;28;20080;-62
2021/05/09 09:42:53;;;;;;;9.52;2.22;;;;;;;;;;5028299;28;20022;-62
2021/05/09 09:45:28;;;;;;;14.00;2.33;;;;;;;;;;5013176;28;20029;-63
2021/05/09 09:47:54;;;;;;;13.70;1.77;;;;;;;;;;5010851;28;20026;-63
2021/05/09 09:50:39;;;;;;;4.28;1.50;;;;;;;;;;5008931;28;20092;-64
2021/05/09 09:53:25;;;;;;;10.35;1.73;;;;;;;;;;5015799;28;20047;-64
2021/05/09 09:56:00;;;;;;;6.30;1.08;;;;;;;;;;5017086;28;20038;-64
2021/05/09 09:58:36;;;;;;;5.88;1.10;;;;;;;;;;5013672;28;20112;-64
2021/05/09 10:01:02;;;;;;;8.90;1.98;;;;;;;;;;5008559;28;20128;-65
2021/05/09 10:03:28;;;;;;;9.07;1.83;;;;;;;;;;5011187;28;20073;-67
2021/05/09 10:05:54;;;;;;;6.85;1.35;;;;;;;;;;4990568;28;20117;-64
2021/05/09 10:08:22;;;;;;;5.00;0.90;;;;;;;;;;5012002;28;20037;-63
2021/05/09 10:10:47;;;;;;;0.82;0.75;;;;;;;;;;5013254;28;20667;-64
2021/05/09 10:13:13;;;;;;;1.65;0.50;;;;;;;;;;5008411;28;20033;-65
2021/05/09 10:15:39;;;;;;;1.33;1.05;;;;;;;;;;5010316;28;20048;-65
2021/05/09 10:18:05;;;;;;;2.38;0.88;;;;;;;;;;5013393;28;20052;-65
2021/05/09 10:20:32;;;;;;;8.13;1.45;;;;;;;;;;5013934;28;20508;-63
2021/05/09 10:23:04;;;;;;;0.75;0.75;;;;;;;;;;5000726;28;20694;-64
2021/05/09 10:25:46;;;;;;;4.65;1.15;;;;;;;;;;5000756;28;20636;-64
2021/05/09 10:28:13;;;;;;;13.30;3.20;;;;;;;;;;5014393;28;20041;-63
2021/05/09 10:30:42;;;;;;;10.98;2.15;;;;;;;;;;5014635;28;20034;-63
2021/05/09 10:33:08;;;;;;;5.38;1.65;;;;;;;;;;5004254;28;20045;-63
2021/05/09 10:35:34;;;;;;;14.93;3.10;;;;;;;;;;5006892;28;20690;-64
2021/05/09 10:38:01;;;;;;;7.00;2.33;;;;;;;;;;5013928;28;20378;-64
2021/05/09 10:40:27;;;;;;;2.25;0.80;;;;;;;;;;5021180;28;20037;-64
2021/05/09 10:43:07;;;;;;;0.77;0.77;;;;;;;;;;5012624;28;20109;-64
2021/05/09 10:45:39;;;;;;;0.68;0.68;;;;;;;;;;5007900;28;20018;-64
2021/05/09 10:50:47;;;;;;;3.67;1.00;;;;;;;;;;5011539;28;20064;-65
2021/05/09 10:53:31;;;;;;;5.85;1.15;;;;;;;;;;5000137;28;20027;-63
2021/05/09 10:55:57;;;;;;;5.10;1.10;;;;;;;;;;5000634;28;20493;-64
2021/05/09 10:58:42;;;;;;;1.23;1.02;;;;;;;;;;4995937;28;20047;-63
2021/05/09 11:01:08;;;;;;;6.28;1.38;;;;;;;;;;5004757;28;20117;-63
2021/05/09 11:03:37;;;;;;;6.80;1.13;;;;;;;;;;5009461;28;20147;-64
2021/05/09 11:06:02;;;;;;;8.65;1.20;;;;;;;;;;5005242;28;20394;-63
2021/05/09 11:08:44;;;;;;;3.15;1.20;;;;;;;;;;5000812;28;20719;-63
2021/05/09 11:11:14;;;;;;;4.13;1.50;;;;;;;;;;5004543;28;20032;-63
2021/05/09 11:14:12;;;;;;;5.30;1.08;;;;;;;;;;5007866;28;20109;-63
2021/05/09 11:16:38;;;;;;;7.97;1.20;;;;;;;;;;4994276;28;20047;-62
2021/05/09 11:19:05;;;;;;;7.43;1.00;;;;;;;;;;5000912;28;20042;-63
2021/05/09 11:21:32;;;;;;;3.15;1.02;;;;;;;;;;5009236;28;20029;-63
2021/05/09 11:23:58;;;;;;;6.28;1.70;;;;;;;;;;5006450;28;20034;-63
2021/05/09 11:26:24;;;;;;;4.97;1.20;;;;;;;;;;5013056;28;20018;-63
2021/05/09 11:29:09;;;;;;;2.63;1.27;;;;;;;;;;5009086;28;20081;-63
2021/05/09 11:31:36;;;;;;;1.25;1.08;;;;;;;;;;5006118;28;20033;-64
2021/05/09 11:34:02;;;;;;;1.98;1.15;;;;;;;;;;5010625;28;20022;-62
2021/05/09 11:36:29;;;;;;;1.10;0.90;;;;;;;;;;5012295;28;20021;-62
2021/05/09 11:39:05;;;;;;;1.05;0.90;;;;;;;;;;4988455;28;20133;-62
2021/05/09 11:41:31;;;;;;;3.85;0.90;;;;;;;;;;4993670;28;20276;-62
2021/05/09 11:44:04;;;;;;;1.20;1.20;;;;;;;;;;5001601;28;20485;-62
2021/05/09 11:46:33;;;;;;;2.28;0.90;;;;;;;;;;4997647;28;20056;-62
2021/05/09 11:49:18;;;;;;;1.10;1.00;;;;;;;;;;5006412;28;20598;-62
